createdAt,value
2022-09-12T00:02:05.826Z,90.80
2022-09-12T00:04:34.136Z,91.00
2022-09-12T00:07:02.403Z,91.00
2022-09-12T00:09:30.937Z,91.10
2022-09-12T00:11:59.291Z,91.10
2022-09-12T00:14:27.585Z,91.20
2022-09-12T00:16:59.453Z,91.20
2022-09-12T00:19:30.025Z,91.20
2022-09-12T00:21:58.369Z,91.30
2022-09-12T00:24:26.593Z,91.20
2022-09-12T00:26:54.870Z,91.20
2022-09-12T00:29:23.926Z,91.10
2022-09-12T00:31:52.294Z,91.10
2022-09-12T00:34:20.640Z,91.10
2022-09-12T00:36:50.411Z,91.10
2022-09-12T00:39:19.325Z,91.10
2022-09-12T00:41:47.615Z,91.10
2022-09-12T00:44:48.661Z,91.10
2022-09-12T00:47:22.222Z,91.20
2022-09-12T00:49:56.025Z,91.20
2022-09-12T00:52:31.051Z,91.20
2022-09-12T00:55:04.174Z,91.20
2022-09-12T00:57:37.093Z,91.30
2022-09-12T01:00:14.737Z,91.40
2022-09-12T01:02:44.143Z,91.40
2022-09-12T01:05:14.566Z,91.50
2022-09-12T01:07:48.601Z,91.50
2022-09-12T01:10:17.274Z,91.50
2022-09-12T01:12:46.141Z,91.60
2022-09-12T01:15:14.894Z,91.60
2022-09-12T01:17:56.953Z,91.50
2022-09-12T01:21:01.519Z,91.50
2022-09-12T01:24:19.132Z,91.50
2022-09-12T01:27:21.644Z,91.50
2022-09-12T01:30:27.913Z,91.50
2022-09-12T01:33:26.223Z,91.40
2022-09-12T01:36:09.650Z,91.40
2022-09-12T01:38:40.909Z,91.40
2022-09-12T01:41:16.272Z,91.40
2022-09-12T01:43:49.620Z,91.40
2022-09-12T01:46:20.615Z,91.40
2022-09-12T01:48:57.436Z,91.30
2022-09-12T01:51:32.358Z,91.40
2022-09-12T01:54:06.176Z,91.40
2022-09-12T01:56:37.581Z,91.60
2022-09-12T01:59:12.076Z,91.60
2022-09-12T02:01:47.271Z,91.60
2022-09-12T02:04:20.123Z,91.70
2022-09-12T02:06:53.753Z,91.70
2022-09-12T02:09:24.883Z,91.70
2022-09-12T02:11:57.392Z,91.80
2022-09-12T02:14:28.785Z,91.80
2022-09-12T02:17:02.430Z,91.90
2022-09-12T02:19:37.566Z,91.90
2022-09-12T02:22:07.953Z,91.80
2022-09-12T02:24:39.978Z,91.80
2022-09-12T02:27:15.178Z,91.80
2022-09-12T02:29:45.458Z,91.80
2022-09-12T02:32:26.627Z,91.80
2022-09-12T02:35:00.907Z,91.80
2022-09-12T02:37:47.145Z,91.80
2022-09-12T02:40:16.249Z,91.80
2022-09-12T02:42:44.666Z,91.80
2022-09-12T02:45:13.983Z,91.80
2022-09-12T02:47:46.859Z,91.70
2022-09-12T02:50:16.769Z,91.70
2022-09-12T02:52:45.806Z,91.80
2022-09-12T02:55:16.540Z,91.90
2022-09-12T02:57:44.941Z,92.00
2022-09-12T03:00:14.929Z,92.00
2022-09-12T03:02:59.901Z,92.00
2022-09-12T03:05:33.659Z,92.00
2022-09-12T03:08:24.530Z,92.00
2022-09-12T03:11:16.590Z,92.00
2022-09-12T03:13:56.924Z,92.00
2022-09-12T03:16:33.163Z,92.00
2022-09-12T03:19:09.160Z,91.90
2022-09-12T03:21:47.251Z,92.00
2022-09-12T03:24:19.829Z,92.00
2022-09-12T03:26:53.999Z,92.10
2022-09-12T03:29:25.332Z,92.20
2022-09-12T03:31:55.846Z,92.10
2022-09-12T03:34:25.733Z,92.10
2022-09-12T03:36:56.123Z,92.00
2022-09-12T03:39:26.455Z,92.10
2022-09-12T03:41:55.383Z,92.20
2022-09-12T03:44:24.291Z,92.30
2022-09-12T03:46:52.799Z,92.40
2022-09-12T03:49:21.088Z,92.40
2022-09-12T03:51:49.432Z,92.80
2022-09-12T03:54:19.211Z,92.60
2022-09-12T03:56:47.593Z,92.50
2022-09-12T03:59:15.894Z,92.60
2022-09-12T04:01:44.344Z,92.50
2022-09-12T04:04:12.683Z,92.60
2022-09-12T04:06:42.085Z,92.60
2022-09-12T04:09:10.455Z,92.60
2022-09-12T04:11:40.209Z,92.70
2022-09-12T04:14:08.577Z,92.80
2022-09-12T04:16:36.956Z,92.80
2022-09-12T04:19:05.294Z,92.80
2022-09-12T04:21:34.383Z,92.80
2022-09-12T04:24:03.087Z,92.80
2022-09-12T04:26:31.962Z,92.80
2022-09-12T04:29:01.897Z,92.80
2022-09-12T04:31:30.209Z,92.80
2022-09-12T04:34:00.478Z,92.70
2022-09-12T04:36:31.231Z,92.70
2022-09-12T04:39:00.385Z,92.70
2022-09-12T04:41:31.459Z,92.70
2022-09-12T04:44:04.364Z,92.70
2022-09-12T04:46:36.609Z,92.80
2022-09-12T04:49:04.906Z,92.80
2022-09-12T04:51:35.140Z,92.90
2022-09-12T04:54:05.973Z,92.90
2022-09-12T04:56:35.059Z,93.00
2022-09-12T04:59:04.796Z,93.10
2022-09-12T05:01:33.122Z,93.00
2022-09-12T05:04:01.427Z,93.00
2022-09-12T05:06:31.630Z,93.10
2022-09-12T05:09:01.992Z,93.00
2022-09-12T05:11:53.051Z,93.10
2022-09-12T05:14:22.193Z,93.00
2022-09-12T05:16:50.579Z,93.00
2022-09-12T05:19:19.137Z,93.00
2022-09-12T05:21:47.376Z,93.10
2022-09-12T05:24:15.665Z,93.10
2022-09-12T05:26:44.101Z,93.00
2022-09-12T05:29:13.266Z,93.00
2022-09-12T05:31:43.432Z,93.00
2022-09-12T05:34:12.785Z,93.00
2022-09-12T05:36:41.469Z,93.10
2022-09-12T05:39:09.770Z,93.20
2022-09-12T05:41:38.129Z,93.30
2022-09-12T05:44:08.682Z,93.30
2022-09-12T05:46:39.111Z,93.30
2022-09-12T05:49:11.476Z,93.30
2022-09-12T05:51:41.633Z,93.30
2022-09-12T05:54:12.110Z,93.40
2022-09-12T05:56:42.385Z,93.50
2022-09-12T05:59:13.840Z,93.50
2022-09-12T06:01:42.783Z,93.60
2022-09-12T06:04:13.326Z,93.70
2022-09-12T06:06:45.345Z,93.90
2022-09-12T06:09:15.246Z,93.90
2022-09-12T06:11:43.930Z,94.00
2022-09-12T06:14:14.586Z,94.10
2022-09-12T06:16:43.249Z,94.20
2022-09-12T06:19:17.313Z,94.30
2022-09-12T06:21:46.248Z,94.50
2022-09-12T06:24:14.764Z,94.60
2022-09-12T06:26:43.864Z,94.60
2022-09-12T06:29:13.472Z,94.80
2022-09-12T06:31:43.300Z,94.80
2022-09-12T06:34:14.410Z,95.00
2022-09-12T06:36:45.543Z,95.20
2022-09-12T06:39:15.386Z,95.30
2022-09-12T06:41:44.650Z,95.50
2022-09-12T06:44:16.305Z,95.60
2022-09-12T06:46:45.467Z,95.60
2022-09-12T06:49:14.257Z,95.70
2022-09-12T06:51:44.533Z,95.80
2022-09-12T06:54:15.609Z,95.90
2022-09-12T06:56:44.119Z,95.90
2022-09-12T06:59:12.602Z,95.90
2022-09-12T07:01:42.090Z,95.90
2022-09-12T07:04:10.674Z,96.00
2022-09-12T07:06:40.844Z,96.10
2022-09-12T07:09:13.087Z,96.20
2022-09-12T07:11:43.231Z,96.30
2022-09-12T07:14:14.305Z,96.30
2022-09-12T07:16:43.527Z,96.60
2022-09-12T07:38:30.684Z,97.20
2022-09-12T07:40:59.153Z,97.50
2022-09-12T07:43:27.529Z,97.70
2022-09-12T07:45:59.298Z,97.50
2022-09-12T07:48:28.549Z,97.50
2022-09-12T07:51:01.364Z,97.40
2022-09-12T07:53:35.777Z,97.50
2022-09-12T07:56:05.625Z,97.50
2022-09-12T07:58:36.175Z,97.50
2022-09-12T08:01:05.998Z,97.60
2022-09-12T08:03:34.401Z,97.70
2022-09-12T08:06:06.832Z,97.80
2022-09-12T08:08:37.246Z,97.90
2022-09-12T08:11:08.157Z,97.60
2022-09-12T08:13:38.357Z,97.60
2022-09-12T08:16:09.567Z,97.50
2022-09-12T08:18:38.013Z,97.60
2022-09-12T08:21:08.479Z,97.50
2022-09-12T08:23:38.325Z,97.40
2022-09-12T08:26:07.649Z,97.50
2022-09-12T08:28:37.471Z,97.40
2022-09-12T08:31:08.141Z,97.30
2022-09-12T08:33:37.406Z,97.50
2022-09-12T08:36:07.919Z,97.50
2022-09-12T08:38:39.218Z,97.50
2022-09-12T08:41:13.988Z,97.50
2022-09-12T08:44:00.202Z,97.60
2022-09-12T08:46:36.438Z,97.40
2022-09-12T08:49:06.930Z,97.20
2022-09-12T08:51:36.825Z,96.70
2022-09-12T08:54:17.168Z,96.60
2022-09-12T08:56:47.726Z,96.60
2022-09-12T08:59:16.431Z,96.50
2022-09-12T09:01:46.704Z,96.50
2022-09-12T09:04:29.090Z,96.30
2022-09-12T09:07:30.011Z,96.40
2022-09-12T09:10:20.154Z,96.10
2022-09-12T09:12:57.996Z,95.60
2022-09-12T09:15:50.145Z,95.10
2022-09-12T09:18:24.213Z,95.00
2022-09-12T09:20:57.408Z,95.00
2022-09-12T09:23:30.968Z,95.10
2022-09-12T09:26:07.959Z,95.10
2022-09-12T09:28:41.394Z,94.40
2022-09-12T09:31:15.952Z,94.20
2022-09-12T09:33:44.929Z,93.00
2022-09-12T09:36:20.345Z,93.00
2022-09-12T09:38:54.220Z,93.10
2022-09-12T09:41:37.851Z,92.80
2022-09-12T09:46:39.787Z,93.10
2022-09-12T09:49:11.513Z,93.70
2022-09-12T09:51:41.929Z,92.90
2022-09-12T09:54:19.865Z,92.60
2022-09-12T09:56:49.655Z,92.50
2022-09-12T09:59:19.935Z,92.00
2022-09-12T10:01:51.365Z,91.90
2022-09-12T10:04:21.541Z,91.90
2022-09-12T10:07:08.259Z,92.00
2022-09-12T10:09:35.785Z,91.80
2022-09-12T10:12:22.197Z,91.60
2022-09-12T10:14:59.180Z,91.10
2022-09-12T10:17:34.107Z,89.80
2022-09-12T10:20:19.929Z,90.40
2022-09-12T10:22:49.808Z,90.20
2022-09-12T10:25:20.770Z,90.20
2022-09-12T10:27:57.671Z,90.50
2022-09-12T10:30:29.025Z,90.80
2022-09-12T10:33:07.103Z,90.80
2022-09-12T10:35:47.165Z,90.90
2022-09-12T10:38:22.968Z,91.00
2022-09-12T10:40:59.569Z,91.00
2022-09-12T10:43:36.100Z,91.00
2022-09-12T10:46:24.151Z,91.10
2022-09-12T10:49:13.463Z,91.70
2022-09-12T10:51:42.050Z,91.80
2022-09-12T10:54:13.731Z,91.90
2022-09-12T10:56:54.263Z,91.90
2022-09-12T10:59:35.000Z,91.90
2022-09-12T11:02:15.859Z,91.80
2022-09-12T11:04:55.064Z,91.60
2022-09-12T11:07:39.328Z,91.60
2022-09-12T11:10:27.185Z,91.60
2022-09-12T11:13:05.216Z,91.00
2022-09-12T11:16:04.565Z,90.60
2022-09-12T11:18:54.002Z,90.10
2022-09-12T11:21:36.000Z,90.10
2022-09-12T11:24:27.413Z,89.30
2022-09-12T11:27:09.906Z,88.60
2022-09-12T11:29:49.455Z,87.20
2022-09-12T11:32:50.074Z,86.30
2022-09-12T11:35:25.939Z,86.00
2022-09-12T11:38:24.060Z,85.10
2022-09-12T11:40:56.110Z,83.00
2022-09-12T11:43:34.848Z,81.00
2022-09-12T11:46:11.929Z,81.30
2022-09-12T11:48:48.610Z,81.40
2022-09-12T11:51:21.125Z,81.00
2022-09-12T11:54:14.011Z,78.40
2022-09-12T11:56:47.317Z,76.00
2022-09-12T11:59:27.592Z,75.80
2022-09-12T12:02:00.469Z,75.90
2022-09-12T12:04:38.575Z,74.20
2022-09-12T12:07:09.519Z,74.10
2022-09-12T12:09:47.451Z,73.60
2022-09-12T12:12:21.620Z,71.30
2022-09-12T12:14:53.721Z,71.60
2022-09-12T12:17:24.665Z,71.40
2022-09-12T12:20:05.764Z,71.60
2022-09-12T12:22:37.725Z,70.20
2022-09-12T12:25:29.678Z,70.10
2022-09-12T12:28:02.405Z,68.10
2022-09-12T12:31:05.776Z,67.50
2022-09-12T12:33:57.559Z,66.40
2022-09-12T12:36:43.354Z,65.40
2022-09-12T12:39:45.163Z,65.10
2022-09-12T12:43:02.242Z,64.20
2022-09-12T12:46:11.861Z,61.20
2022-09-12T12:49:05.213Z,62.30
2022-09-12T12:51:43.306Z,63.00
2022-09-12T12:54:45.379Z,63.80
2022-09-12T12:57:40.908Z,63.80
2022-09-12T13:00:28.553Z,63.70
2022-09-12T13:03:00.396Z,64.60
2022-09-12T13:05:31.839Z,64.50
2022-09-12T13:08:08.062Z,63.90
2022-09-12T13:10:36.498Z,62.70
2022-09-12T13:13:09.069Z,62.40
2022-09-12T13:15:51.764Z,62.50
2022-09-12T13:18:27.862Z,62.50
2022-09-12T13:21:05.933Z,62.30
2022-09-12T13:23:36.101Z,61.90
2022-09-12T13:26:11.221Z,60.90
2022-09-12T13:28:39.705Z,60.50
2022-09-12T13:31:18.323Z,60.40
2022-09-12T13:33:50.657Z,60.80
2022-09-12T13:36:58.655Z,59.70
2022-09-12T13:39:30.764Z,59.00
2022-09-12T13:42:22.199Z,59.20
2022-09-12T13:44:54.376Z,58.70
2022-09-12T13:47:29.765Z,57.90
2022-09-12T13:49:59.690Z,57.60
2022-09-12T13:52:31.592Z,57.20
2022-09-12T13:55:03.231Z,57.50
2022-09-12T13:57:37.703Z,57.20
2022-09-12T14:00:09.446Z,57.60
2022-09-12T14:02:41.315Z,57.60
2022-09-12T14:05:14.941Z,56.50
2022-09-12T14:07:55.272Z,56.00
2022-09-12T14:10:30.308Z,55.90
2022-09-12T14:13:00.329Z,55.70
2022-09-12T14:15:37.427Z,55.30
2022-09-12T14:18:08.934Z,55.40
2022-09-12T14:20:39.576Z,55.60
2022-09-12T14:23:19.553Z,55.70
2022-09-12T14:25:50.678Z,55.60
2022-09-12T14:28:23.575Z,55.50
2022-09-12T14:31:04.996Z,55.90
2022-09-12T14:33:35.671Z,55.90
2022-09-12T14:36:13.822Z,55.20
2022-09-12T14:38:45.596Z,55.30
2022-09-12T14:41:23.397Z,55.30
2022-09-12T14:43:56.215Z,55.70
2022-09-12T14:46:30.010Z,55.70
2022-09-12T14:49:02.345Z,55.30
2022-09-12T14:51:35.832Z,55.70
2022-09-12T14:54:04.613Z,56.10
2022-09-12T14:56:42.579Z,56.00
2022-09-12T14:59:30.974Z,56.10
2022-09-12T15:02:25.841Z,56.20
2022-09-12T15:04:56.440Z,56.40
2022-09-12T15:07:33.978Z,56.30
2022-09-12T15:10:04.294Z,56.80
2022-09-12T15:12:34.157Z,57.10
2022-09-12T15:15:14.297Z,57.50
2022-09-12T15:17:43.221Z,57.80
2022-09-12T15:20:12.171Z,58.20
2022-09-12T15:22:40.967Z,58.20
2022-09-12T15:25:12.295Z,58.40
2022-09-12T15:27:42.391Z,58.60
2022-09-12T15:30:12.265Z,58.50
2022-09-12T15:32:41.804Z,58.20
2022-09-12T15:35:15.832Z,58.30
2022-09-12T15:37:44.325Z,58.30
2022-09-12T15:40:13.662Z,58.30
2022-09-12T15:42:43.847Z,58.30
2022-09-12T15:45:18.798Z,58.20
2022-09-12T15:47:47.679Z,58.40
2022-09-12T15:50:16.472Z,58.80
2022-09-12T15:52:44.886Z,58.50
2022-09-12T15:55:18.419Z,58.60
2022-09-12T15:57:48.374Z,58.70
2022-09-12T16:00:18.566Z,58.70
2022-09-12T16:02:47.678Z,58.90
2022-09-12T16:05:17.988Z,59.20
2022-09-12T16:07:46.862Z,59.50
2022-09-12T16:10:17.469Z,59.60
2022-09-12T16:12:48.060Z,59.30
2022-09-12T16:15:19.104Z,59.40
2022-09-12T16:17:47.820Z,59.30
2022-09-12T16:20:17.401Z,59.50
2022-09-12T16:22:45.718Z,59.60
2022-09-12T16:25:14.198Z,60.20
2022-09-12T16:27:43.178Z,59.70
2022-09-12T16:30:14.684Z,59.60
2022-09-12T16:32:43.023Z,59.70
2022-09-12T16:35:11.789Z,59.40
2022-09-12T16:37:40.515Z,59.10
2022-09-12T16:40:09.998Z,59.20
2022-09-12T16:42:43.156Z,59.00
2022-09-12T16:45:14.616Z,59.10
2022-09-12T16:47:43.038Z,59.00
2022-09-12T16:50:11.839Z,58.80
2022-09-12T16:52:40.140Z,58.90
2022-09-12T16:55:10.173Z,59.00
2022-09-12T16:57:38.805Z,59.00
2022-09-12T17:00:09.497Z,59.00
2022-09-12T17:02:39.344Z,59.30
2022-09-12T17:05:08.492Z,59.40
2022-09-12T17:07:36.828Z,59.50
2022-09-12T17:10:06.144Z,59.70
2022-09-12T17:12:34.614Z,59.80
2022-09-12T17:15:02.885Z,59.80
2022-09-12T17:17:31.265Z,60.00
2022-09-12T17:20:01.373Z,60.40
2022-09-12T17:22:29.701Z,60.50
2022-09-12T17:24:58.698Z,60.60
2022-09-12T17:27:27.594Z,60.80
2022-09-12T17:29:56.070Z,61.40
2022-09-12T17:32:24.819Z,61.30
2022-09-12T17:34:53.384Z,61.90
2022-09-12T17:37:23.302Z,63.40
2022-09-12T17:39:51.759Z,64.60
2022-09-12T17:42:24.447Z,65.40
2022-09-12T17:44:53.062Z,66.00
2022-09-12T17:47:21.876Z,66.60
2022-09-12T17:49:50.683Z,67.10
2022-09-12T17:52:19.768Z,67.50
2022-09-12T17:54:49.693Z,67.80
2022-09-12T17:57:18.710Z,67.80
2022-09-12T17:59:47.095Z,67.90
2022-09-12T18:02:15.964Z,68.00
2022-09-12T18:04:47.383Z,68.00
2022-09-12T18:07:18.393Z,68.00
2022-09-12T18:09:50.156Z,68.20
2022-09-12T18:12:20.531Z,68.00
2022-09-12T18:14:49.314Z,68.00
2022-09-12T18:17:18.422Z,68.10
2022-09-12T18:19:53.413Z,68.00
2022-09-12T18:22:22.005Z,68.00
2022-09-12T18:24:52.160Z,68.10
2022-09-12T18:27:20.416Z,68.10
2022-09-12T18:30:04.242Z,68.30
2022-09-12T18:32:37.567Z,68.50
2022-09-12T18:35:08.882Z,68.90
2022-09-12T18:37:37.764Z,69.10
2022-09-12T18:40:09.688Z,69.00
2022-09-12T18:42:38.581Z,69.10
2022-09-12T18:45:08.625Z,69.30
2022-09-12T18:47:37.035Z,69.50
2022-09-12T18:50:06.624Z,69.10
2022-09-12T18:52:34.944Z,69.10
2022-09-12T18:55:03.195Z,68.90
2022-09-12T18:57:35.134Z,69.00
2022-09-12T19:00:09.353Z,69.30
2022-09-12T19:02:40.206Z,69.60
2022-09-12T19:05:08.989Z,69.50
2022-09-12T19:07:37.318Z,69.60
2022-09-12T19:10:06.820Z,69.80
2022-09-12T19:12:36.542Z,70.60
2022-09-12T19:15:05.931Z,70.00
2022-09-12T19:17:34.242Z,70.20
2022-09-12T19:20:03.012Z,70.20
2022-09-12T19:22:32.346Z,70.00
2022-09-12T19:25:00.650Z,70.20
2022-09-12T19:27:29.065Z,70.20
2022-09-12T19:29:58.854Z,70.50
2022-09-12T19:32:27.130Z,70.50
2022-09-12T19:34:55.447Z,70.60
2022-09-12T19:37:24.277Z,70.60
2022-09-12T19:39:53.098Z,70.70
2022-09-12T19:42:21.415Z,70.80
2022-09-12T19:44:53.253Z,70.80
2022-09-12T19:47:23.651Z,71.00
2022-09-12T19:49:52.643Z,71.00
2022-09-12T19:52:20.976Z,71.00
2022-09-12T19:54:49.395Z,71.00
2022-09-12T19:57:17.724Z,71.30
2022-09-12T19:59:46.292Z,71.60
2022-09-12T20:02:14.729Z,71.80
2022-09-12T20:04:44.505Z,71.90
2022-09-12T20:07:13.234Z,72.10
2022-09-12T20:09:41.505Z,72.30
2022-09-12T20:12:10.011Z,72.60
2022-09-12T20:14:38.909Z,72.70
2022-09-12T20:17:07.348Z,72.80
2022-09-12T20:19:36.058Z,72.80
2022-09-12T20:22:06.140Z,72.90
2022-09-12T20:24:35.521Z,73.10
2022-09-12T20:27:04.793Z,73.20
2022-09-12T20:29:33.244Z,73.20
2022-09-12T20:32:02.072Z,73.40
2022-09-12T20:34:30.943Z,73.40
2022-09-12T20:36:59.665Z,73.50
2022-09-12T20:39:30.042Z,73.70
2022-09-12T20:41:58.703Z,74.00
2022-09-12T20:44:27.778Z,74.90
2022-09-12T20:46:56.845Z,74.20
2022-09-12T20:49:25.832Z,74.10
2022-09-12T20:51:54.946Z,74.10
2022-09-12T20:54:24.161Z,74.10
2022-09-12T20:56:53.951Z,74.40
2022-09-12T20:59:22.314Z,74.60
2022-09-12T21:01:50.676Z,74.80
2022-09-12T21:04:19.942Z,75.00
2022-09-12T21:06:48.292Z,75.00
2022-09-12T21:09:16.890Z,75.00
2022-09-12T21:11:45.874Z,75.20
2022-09-12T21:14:16.017Z,75.40
2022-09-12T21:16:44.745Z,75.50
2022-09-12T21:19:13.176Z,75.40
2022-09-12T21:21:41.744Z,75.50
2022-09-12T21:24:14.373Z,75.40
2022-09-12T21:26:42.934Z,75.60
2022-09-12T21:29:11.780Z,75.70
2022-09-12T21:31:41.843Z,75.80
2022-09-12T21:34:10.608Z,75.90
2022-09-12T21:36:39.161Z,76.00
2022-09-12T21:39:08.035Z,76.00
2022-09-12T21:41:36.561Z,76.00
2022-09-12T21:44:05.415Z,76.10
2022-09-12T21:46:33.703Z,76.20
2022-09-12T21:49:03.538Z,76.20
2022-09-12T21:51:32.229Z,76.20
2022-09-12T21:54:01.748Z,76.30
2022-09-12T21:56:30.057Z,76.30
2022-09-12T21:58:58.783Z,76.40
2022-09-12T22:01:27.125Z,76.50
2022-09-12T22:03:55.470Z,76.70
2022-09-12T22:06:25.173Z,76.70
2022-09-12T22:08:53.478Z,76.90
2022-09-12T22:11:23.414Z,77.10
2022-09-12T22:13:51.768Z,77.00
2022-09-12T22:16:20.212Z,77.20
2022-09-12T22:18:49.165Z,77.30
2022-09-12T22:21:19.354Z,77.50
2022-09-12T22:24:06.958Z,77.70
2022-09-12T22:26:43.546Z,77.70
2022-09-12T22:29:13.379Z,78.00
2022-09-12T22:31:41.878Z,78.00
2022-09-12T22:34:10.237Z,78.20
2022-09-12T22:36:39.264Z,78.20
2022-09-12T22:39:09.563Z,78.10
2022-09-12T22:41:37.973Z,78.10
2022-09-12T22:44:06.966Z,78.20
2022-09-12T22:46:35.351Z,78.40
2022-09-12T22:49:05.357Z,78.60
2022-09-12T22:51:34.384Z,78.80
2022-09-12T22:54:02.843Z,79.00
2022-09-12T22:56:32.821Z,79.00
2022-09-12T22:59:01.275Z,79.00
2022-09-12T23:01:29.958Z,79.00
2022-09-12T23:03:58.635Z,79.00
2022-09-12T23:06:28.004Z,78.90
2022-09-12T23:08:56.788Z,78.90
2022-09-12T23:11:25.169Z,78.80
2022-09-12T23:13:54.929Z,78.70
2022-09-12T23:16:25.017Z,78.70
2022-09-12T23:18:53.482Z,78.70
2022-09-12T23:21:22.879Z,78.70
2022-09-12T23:23:51.564Z,78.70
2022-09-12T23:26:22.045Z,78.70
2022-09-12T23:28:52.903Z,78.70
2022-09-12T23:31:23.602Z,78.70
2022-09-12T23:33:54.359Z,78.80
2022-09-12T23:36:24.942Z,78.80
2022-09-12T23:38:53.614Z,78.80
2022-09-12T23:41:22.245Z,78.80
2022-09-12T23:43:50.576Z,78.80
2022-09-12T23:46:19.953Z,79.20
2022-09-12T23:48:49.999Z,79.40
2022-09-12T23:51:18.506Z,79.60
2022-09-12T23:53:46.866Z,79.70
2022-09-12T23:56:15.174Z,79.70
2022-09-12T23:58:43.524Z,79.70
